Airfield :
LOGIN :

Register | Disclaimer

   EN    FR    IT 

 










Legend :    VFR   Marginal VFR   IFR   Intensive IFR   Very Intensive IFR
Visi :
Ceiling :
>= 8 km
>= 3000ft
5 to 8 km
1000 to 3000 ft
1500m to 5 km
500 to 1000 ft
800 to 1500m
200 to 500 ft
< 800m
< 200 ft
Symbols :   Thunderstorms  Fog  Heavy snow  Heavy precipitations  Wind > 20 kt
SIGMETs :     Misc.  Thunderstorms  Icing  Turbulence  Mountain Waves  Volcanic Ashes






- Airport Elevation : 396 ft


LFOZ - Orléans St Denis

CURRENT METAR :
  • 200130Z AUTO 07004KT 9999 FEW004/// BKN035/// OVC042/// ///TCU 12/11 Q1005

EXPIRED METARs :
  • 200100Z AUTO 06004KT 9999 FEW043 BKN050 BKN062 12/11 Q1005
  • 200030Z AUTO 06004KT 9999 FEW003 BKN032 BKN054 12/11 Q1005
  • 200000Z AUTO 09003KT 9999 FEW010/// SCT026/// BKN031/// ///TCU 12/11 Q1005
  • 192330Z AUTO 04004KT 9999 BKN015/// OVC023/// ///CB 12/11 Q1006
  • 192300Z AUTO 03004KT 6000 -RADZ SCT007 BKN020 OVC027 12/11 Q1006

TAF N/A



MET'MAP, your aeronautical weather chart ! - Copyright ORBIFLY December 2007 - Disclaimer

ORBIFLY MET'MAP TEAM :

Programming & Development : Alexandra Zaïnal
Concept & Development : Baudouin d'Aumeries
Co-Development & Prog : Marc-Olivier Méhu
Technical & hardware support : Manuel Goepfert

Contact : metmap@orbifly.com




SOURCES & CREDITS :

   NOAA